NYSE:EC - Ecopetrol Institutional Ownership

$17.77
-0.20 (-1.11 %)
(As of 09/17/2019 04:00 PM ET)
Today's Range
$17.55
Now: $17.77
$18.07
50-Day Range
$15.29
MA: $16.50
$18.19
52-Week Range
$15.21
Now: $17.77
$27.96
Volume1.42 million shs
Average Volume777,925 shs
Market Capitalization$36.53 billion
P/E Ratio10.21
Dividend Yield5.34%
Beta1.57

Institutional Ownership

Institutional Ownership Changes (13F Filings) for Ecopetrol (NYSE:EC)

Institutional Ownership Percentage: 2.63%

Ecopetrol (NYSE EC) Institutional Buying and Selling

Reporting DateHedge FundShares HeldMarket Value% of PortfolioQuarterly Change in SharesOwnership in Company
8/23/2019Mackenzie Financial Corp527,794$9.65M0.0%+507.4%0.026%
8/19/2019Barrow Hanley Mewhinney & Strauss LLC3,047,247$55.73M0.1%-30.1%0.148%
8/17/2019Royal Bank of Canada6,786$0.13M0.0%+280.0%0.000%
8/16/2019Amundi Pioneer Asset Management Inc.46,782$0.86M0.0%N/A0.002%
8/16/2019ClariVest Asset Management LLC420,800$7.70M0.2%N/A0.020%
8/15/2019UBS Asset Management Americas Inc.260,584$4.77M0.0%+2.6%0.013%
8/15/2019Jane Street Group LLC10,854$0.20M0.0%-41.8%0.001%
8/14/2019D. E. Shaw & Co. Inc.165,032$3.02M0.0%-7.6%0.008%
8/14/2019Cubist Systematic Strategies LLC13,491$0.25M0.0%+25.3%0.001%
8/14/2019Jefferies Group LLC47,430$0.87M0.0%N/A0.002%
8/14/2019Point72 Asset Management L.P.496,453$9.08M0.0%-20.0%0.024%
8/14/2019Marshall Wace LLP17,340$0.32M0.0%N/A0.001%
8/14/2019Morgan Stanley220,705$4.04M0.0%-38.3%0.011%
8/14/2019Marshall Wace North America L.P.313,148$5.73M0.0%+5,251.1%0.015%
8/14/2019Rock Creek Group LP4,092$75K0.0%-84.3%0.000%
8/14/2019Putnam Investments LLC271,204$4.96M0.0%-36.1%0.013%
8/14/2019Mackenzie Financial Corp527,794$9.65M0.0%+507.4%0.026%
8/14/2019Invesco Ltd.120,414$2.20M0.0%-16.0%0.006%
8/14/2019Vanguard Group Inc.2,927,554$53.55M0.0%-0.6%0.142%
8/14/2019AMP Capital Investors Ltd162,720$2.99M0.0%+294.8%0.008%
8/14/2019A.R.T. Advisors LLC28,897$0.53M0.0%N/A0.001%
8/13/2019Tower Research Capital LLC TRC 9,603$0.18M0.0%+124.6%0.000%
8/13/2019BlackRock Inc.3,484,932$63.74M0.0%+160.1%0.170%
8/13/2019Qtron Investments LLC60,717$1.11M0.7%-31.1%0.003%
8/13/2019US Bancorp DE7,452$0.14M0.0%+53.5%0.000%
8/13/2019Pinebridge Investments L.P.48,271$0.88M0.0%-2.5%0.002%
8/13/2019United Capital Financial Advisers LLC16,851$0.31M0.0%N/A0.001%
8/13/2019Profund Advisors LLC23,184$0.42M0.0%-28.2%0.001%
8/13/2019APG Asset Management N.V.1,712,000$27.50M0.0%-6.8%0.083%
8/13/2019Deprince Race & Zollo Inc.271,845$4.97M0.1%+11.3%0.013%
8/13/2019Barrow Hanley Mewhinney & Strauss LLC3,047,247$55.73M0.1%-30.1%0.148%
8/13/2019Parametric Portfolio Associates LLC1,268,249$23.20M0.0%+3.7%0.062%
8/13/2019Grantham Mayo Van Otterloo & Co. LLC253,575$4.64M0.0%-32.3%0.012%
8/13/2019Northern Trust Corp1,130,890$20.68M0.0%-2.9%0.055%
8/12/2019Pacer Advisors Inc.2,644$48K0.0%N/A0.000%
8/12/2019Cadence Capital Management LLC12,638$0.23M0.0%+6.5%0.001%
8/12/2019Renaissance Technologies LLC6,709,700$122.72M0.1%-1.3%0.326%
8/10/2019U S Global Investors Inc.30,000$0.55M0.3%N/A0.001%
8/10/2019Charles Schwab Investment Management Inc.300,417$5.50M0.0%+2.7%0.015%
8/9/2019Panagora Asset Management Inc.72,724$1.33M0.0%+58.7%0.004%
8/9/2019Russell Investments Group Ltd.1,396,246$25.68M0.0%-26.9%0.068%
8/9/2019OMERS ADMINISTRATION Corp246,600$4.57M0.0%+62.8%0.012%
8/8/2019Allianz Asset Management GmbH98,389$1.80M0.0%-20.4%0.005%
8/8/2019Acadian Asset Management LLC10,899,224$199.34M1.0%-14.3%0.530%
8/7/2019JPMorgan Chase & Co.142,350$2.62M0.0%+90.6%0.007%
8/6/2019Wells Fargo & Company MN47,035$0.86M0.0%+17.9%0.002%
8/6/2019Stone Ridge Asset Management LLC39,771$0.73M0.0%-18.1%0.002%
8/5/2019Freestone Capital Holdings LLC291,152$5.33M0.1%-9.9%0.014%
8/2/2019Comerica Bank109,258$2.06M0.0%-2.0%0.005%
8/2/2019Envestnet Asset Management Inc.35,057$0.64M0.0%+16.1%0.002%
7/31/2019Signaturefd LLC2,490$46K0.0%-21.2%0.000%
7/31/2019Advisor Group Inc.7,853$0.14M0.0%-31.0%0.000%
7/30/2019Aperio Group LLC410,340$7.51M0.0%-3.1%0.020%
7/30/2019BNP Paribas Arbitrage SA18,989$0.35M0.0%+235.5%0.001%
7/30/2019First Trust Advisors LP10,741$0.20M0.0%N/A0.001%
7/30/2019Fisher Asset Management LLC2,345,309$42.90M0.0%-2.4%0.114%
7/30/2019Zurcher Kantonalbank Zurich Cantonalbank157,888$2.89M0.0%+26.0%0.008%
6/30/2019SG Americas Securities LLC83,933$1.54M0.0%+87.9%0.004%
6/30/2019Sumitomo Mitsui Trust Holdings Inc.14,620$0.27M0.0%N/A0.001%
6/30/2019Quantitative Systematic Strategies LLC13,537$0.25M0.0%N/A0.001%
6/30/2019Manning & Napier Group LLC163,492$2.99M0.0%N/A0.008%
6/30/2019James Investment Research Inc.56,703$1.04M0.1%-12.8%0.003%
6/30/2019Quadrant Capital Group LLC12,592$0.23M0.0%+132.4%0.001%
6/30/2019World Asset Management Inc29,735$0.54M0.0%-4.4%0.001%
6/30/2019State of New Jersey Common Pension Fund D213,155$3.90M0.0%+155.9%0.010%
6/30/2019Eqis Capital Management Inc.10,494$0.19M0.0%-60.5%0.001%
6/30/2019Fox Run Management L.L.C.16,872$0.31M0.2%N/A0.001%
6/30/2019Henry James International Management Inc.51,171$0.94M0.4%-3.6%0.002%
6/30/2019TB Alternative Assets Ltd.55,400$1.01M0.1%N/A0.003%
6/30/2019Campbell & CO Investment Adviser LLC11,371$0.21M0.1%N/A0.001%
6/30/2019Crossmark Global Holdings Inc.28,175$0.52M0.0%-10.7%0.001%
6/16/2019Marshall Wace North America L.P.5,852$0.13M0.0%-97.4%0.000%
6/16/2019Belpointe Asset Management LLC5,123$0.11M0.0%N/A0.000%
5/13/2019Qtron Investments LLC88,176$1.89M1.7%N/A0.000%
5/13/2019Edmond DE Rothschild Holding S.A.76,900$1.65M0.1%-46.0%0.000%
5/13/2019FIL Ltd167,265$3.59M0.0%+5.4%0.000%
5/10/2019NumerixS Investment Technologies Inc13,054$0.28M0.0%+34.2%0.001%
5/10/2019O Shaughnessy Asset Management LLC10,699$0.23M0.0%-5.2%0.001%
5/10/2019Rock Creek Group LP25,981$0.56M0.2%N/A0.001%
5/10/2019Nomura Asset Management Co. Ltd.21,003$0.45M0.0%-15.3%0.001%
5/9/2019CIBC World Markets Inc.15,415$0.33M0.0%N/A0.001%
5/9/2019Signaturefd LLC3,159$68K0.0%-15.6%0.000%
5/9/2019Acadian Asset Management LLC12,715,144$272.62M1.2%-9.3%0.618%
5/9/2019Parametric Portfolio Associates LLC1,223,018$26.22M0.0%-9.7%0.059%
5/9/2019Wetherby Asset Management Inc.22,906$0.49M0.1%+2.5%0.001%
5/8/2019Freestone Capital Holdings LLC323,155$6.93M0.4%N/A0.016%
5/8/2019NS Partners Ltd32,000$0.69M0.1%N/A0.002%
5/8/2019Connor Clark & Lunn Investment Management Ltd.373,573$8.01M0.1%-69.3%0.018%
5/8/2019Greenleaf Trust11,198$0.24M0.0%-22.8%0.001%
5/3/2019Boston Partners238,703$5.12M0.0%N/A0.012%
5/3/2019Advisors Preferred LLC5,142$0.11M0.0%N/A0.000%
5/2/2019Crossmark Global Holdings Inc.31,547$0.68M0.0%-4.0%0.000%
5/2/2019Comerica Bank111,487$2.44M0.0%-7.1%0.000%
4/29/2019SG Americas Securities LLC44,674$0.96M0.0%N/A0.000%
4/29/2019Zurcher Kantonalbank Zurich Cantonalbank125,288$2.69M0.0%+16.8%0.000%
4/26/2019Bank of Montreal Can63,981$1.37M0.0%+4.2%0.003%
4/26/2019James Investment Research Inc.65,008$1.39M0.1%-22.1%0.003%
4/25/2019BNP Paribas Arbitrage SA5,660$0.12M0.0%-65.2%0.000%
4/24/2019Bailard Inc.88,550$1.90M0.1%-45.9%0.004%
4/23/2019Lindbrook Capital LLC1,315$28K0.0%+116.6%0.000%
(Data available from 1/1/2016 forward)
This page was last updated on 9/17/2019 by MarketBeat.com Staff

Featured Article: Most Active Stocks

Enter your email address below to receive a concise daily summary of analysts' upgrades, downgrades and new coverage with MarketBeat.com's FREE daily email newsletter.

Yahoo Gemini Pixel